Time;durP1;ratioP1;P1;durP2;ratioP2;P2;SDS_P1;SDS_P2;PMS_P1;PMS_P2;Temp;Humidity;BMP_temperature;BMP_pressure;BME280_temperature;BME280_humidity;BME280_pressure;Samples;Min_cycle;Max_cycle;Signal;HPM_P1;HPM_P2
2021/11/06 00:00:40;;;;;;;21.70;11.88;;;;;;;5.35;95.47;102612.41;4976978;28;20042;-69
2021/11/06 00:03:06;;;;;;;22.17;11.48;;;;;;;5.32;95.65;102606.59;4986616;28;20045;-68
2021/11/06 00:05:33;;;;;;;24.33;13.45;;;;;;;5.29;95.84;102610.13;4982917;28;20038;-69
2021/11/06 00:07:58;;;;;;;22.90;11.05;;;;;;;5.28;96.35;102613.63;4981179;28;20038;-69
2021/11/06 00:10:25;;;;;;;26.50;12.10;;;;;;;5.27;95.99;102609.38;4978514;28;20078;-68
2021/11/06 00:12:50;;;;;;;23.10;12.10;;;;;;;5.24;95.97;102612.13;5002816;28;20129;-68
2021/11/06 00:15:17;;;;;;;24.27;11.45;;;;;;;5.21;95.87;102610.50;4984601;28;20137;-69
2021/11/06 00:17:43;;;;;;;23.13;11.07;;;;;;;5.21;95.71;102617.41;4966853;28;20089;-69
2021/11/06 00:20:12;;;;;;;25.33;11.32;;;;;;;5.19;96.01;102614.09;4971222;28;20031;-68
2021/11/06 00:22:38;;;;;;;26.17;11.15;;;;;;;5.20;96.32;102615.75;4982372;28;20637;-69
2021/11/06 00:25:06;;;;;;;34.63;10.60;;;;;;;5.19;95.96;102612.34;4978775;28;20105;-69
2021/11/06 00:27:32;;;;;;;33.75;10.23;;;;;;;5.19;95.65;102608.94;4971729;28;20541;-69
2021/11/06 00:29:57;;;;;;;30.08;11.43;;;;;;;5.16;95.77;102603.94;4976991;28;20121;-69
2021/11/06 00:32:22;;;;;;;38.70;11.40;;;;;;;5.13;95.65;102609.25;4975984;28;20407;-69
2021/11/06 00:34:48;;;;;;;26.65;9.98;;;;;;;5.10;95.81;102605.06;4977920;28;20054;-69
2021/11/06 00:37:14;;;;;;;30.35;12.38;;;;;;;5.10;95.79;102610.22;4975012;28;20026;-69
2021/11/06 00:39:39;;;;;;;31.10;12.65;;;;;;;5.08;95.79;102604.31;4978454;28;20740;-69
2021/11/06 00:42:05;;;;;;;32.45;13.50;;;;;;;5.09;95.69;102611.13;4974843;28;20038;-69
2021/11/06 00:44:30;;;;;;;35.28;11.48;;;;;;;5.06;95.78;102611.28;4981233;28;20295;-69
2021/11/06 00:46:57;;;;;;;33.67;11.25;;;;;;;5.05;95.46;102607.88;4987452;28;20026;-69
2021/11/06 00:49:22;;;;;;;40.92;11.80;;;;;;;5.04;95.81;102613.91;4967494;28;20031;-69
2021/11/06 00:51:48;;;;;;;33.65;11.25;;;;;;;5.03;95.70;102614.03;4984508;28;20037;-69
2021/11/06 00:54:13;;;;;;;40.83;12.65;;;;;;;5.00;95.59;102620.13;4971739;28;20054;-69
2021/11/06 00:56:39;;;;;;;38.05;10.80;;;;;;;4.99;95.59;102613.34;4977185;28;20588;-68
2021/11/06 00:59:04;;;;;;;33.60;11.60;;;;;;;4.97;95.92;102609.16;4983974;28;20468;-69
2021/11/06 01:01:30;;;;;;;38.90;12.02;;;;;;;4.97;95.89;102628.00;4977170;28;20580;-69
2021/11/06 01:03:56;;;;;;;36.10;10.43;;;;;;;4.98;95.71;102633.97;4976158;28;20047;-69
2021/11/06 01:06:23;;;;;;;30.50;10.30;;;;;;;4.95;95.40;102629.78;5012161;28;20040;-69
2021/11/06 01:08:48;;;;;;;29.98;10.30;;;;;;;4.94;95.35;102632.47;4985756;22;20079;-79
2021/11/06 01:11:14;;;;;;;33.30;10.98;;;;;;;4.93;95.61;102630.78;4982413;28;20037;-77
2021/11/06 01:13:39;;;;;;;31.92;10.63;;;;;;;4.91;95.49;102632.59;4970437;28;20046;-76
2021/11/06 01:16:05;;;;;;;34.78;11.30;;;;;;;4.90;95.53;102631.78;4972854;28;20037;-79
2021/11/06 01:18:31;;;;;;;27.20;10.02;;;;;;;4.93;95.52;102639.31;4975343;28;20705;-78
2021/11/06 01:20:56;;;;;;;30.80;9.90;;;;;;;4.88;95.61;102637.00;4963487;28;20045;-78
2021/11/06 01:23:22;;;;;;;29.92;9.98;;;;;;;4.88;95.56;102628.47;5018315;28;20028;-77
2021/11/06 01:25:48;;;;;;;37.10;10.07;;;;;;;4.85;95.68;102628.59;5027355;28;20038;-77
2021/11/06 01:28:14;;;;;;;33.70;10.20;;;;;;;4.85;95.80;102628.59;4965441;28;20019;-77
2021/11/06 01:30:39;;;;;;;32.13;10.02;;;;;;;4.82;95.81;102627.00;4990793;28;20460;-76
2021/11/06 01:33:05;;;;;;;31.88;10.63;;;;;;;4.81;95.43;102633.03;4987487;28;20038;-77
2021/11/06 01:35:30;;;;;;;33.88;12.68;;;;;;;4.80;95.14;102627.97;4972428;28;20117;-76
2021/11/06 01:37:59;;;;;;;26.45;10.65;;;;;;;4.79;95.53;102627.16;4980618;28;20031;-76
2021/11/06 01:40:26;;;;;;;31.13;11.40;;;;;;;4.76;95.49;102629.84;4981326;28;20134;-77
2021/11/06 01:42:52;;;;;;;26.98;10.77;;;;;;;4.72;95.53;102623.19;4982135;28;20034;-77
2021/11/06 01:45:19;;;;;;;27.75;10.38;;;;;;;4.73;95.69;102617.16;4982379;28;20084;-77
2021/11/06 01:47:45;;;;;;;29.15;10.48;;;;;;;4.73;95.81;102627.44;4990747;28;20453;-76
2021/11/06 01:50:11;;;;;;;30.33;10.07;;;;;;;4.74;95.73;102628.28;4983316;28;20086;-76
2021/11/06 01:52:37;;;;;;;27.75;10.48;;;;;;;4.72;95.79;102630.09;4966205;28;20409;-77
2021/11/06 01:55:04;;;;;;;29.05;10.77;;;;;;;4.69;95.63;102625.94;4980066;28;20100;-77
2021/11/06 01:57:29;;;;;;;25.10;10.68;;;;;;;4.68;96.00;102630.22;4980877;28;20023;-76
2021/11/06 01:59:55;;;;;;;20.17;9.75;;;;;;;4.65;95.61;102622.69;4972397;28;20478;-77
2021/11/06 02:02:20;;;;;;;28.92;10.43;;;;;;;4.62;95.61;102627.94;4967385;28;20065;-77
2021/11/06 02:04:46;;;;;;;31.50;11.13;;;;;;;4.59;95.26;102627.25;4979978;28;20049;-76
2021/11/06 02:07:11;;;;;;;37.63;13.57;;;;;;;4.58;95.57;102618.72;4984202;28;20038;-77
2021/11/06 02:09:37;;;;;;;27.40;11.38;;;;;;;4.57;95.49;102623.94;4977262;28;20034;-76
2021/11/06 02:12:03;;;;;;;29.25;12.00;;;;;;;4.57;95.15;102618.78;4984748;28;20650;-77
2021/11/06 02:14:29;;;;;;;29.23;11.98;;;;;;;4.54;95.38;102629.22;4981132;28;20034;-77
2021/11/06 02:16:55;;;;;;;24.50;12.23;;;;;;;4.53;95.37;102628.38;4981655;28;20046;-76
2021/11/06 02:19:29;;;;;;;27.55;12.32;;;;;;;4.54;95.39;102629.22;4965308;28;20041;-76
2021/11/06 02:21:56;;;;;;;33.65;13.70;;;;;;;4.56;95.67;102622.25;4972104;28;20062;-76
2021/11/06 02:24:23;;;;;;;32.38;12.45;;;;;;;4.53;95.23;102625.00;4978897;28;20110;-76
2021/11/06 02:26:48;;;;;;;36.70;12.77;;;;;;;4.51;95.21;102614.78;4971248;28;20418;-76
2021/11/06 02:29:16;;;;;;;32.30;12.77;;;;;;;4.49;95.34;102619.16;4979480;28;20672;-77
2021/11/06 02:31:42;;;;;;;30.42;12.73;;;;;;;4.47;95.34;102616.66;4972637;28;20397;-77
2021/11/06 02:34:08;;;;;;;30.02;12.05;;;;;;;4.42;95.43;102610.06;4979251;28;20046;-77
2021/11/06 02:36:34;;;;;;;34.20;13.07;;;;;;;4.41;95.29;102604.09;4967953;28;20582;-77
2021/11/06 02:38:59;;;;;;;31.88;12.52;;;;;;;4.40;95.71;102610.13;4979277;28;20034;-76
2021/11/06 02:41:25;;;;;;;31.40;12.68;;;;;;;4.45;95.20;102602.22;4956407;28;20039;-76
2021/11/06 02:43:51;;;;;;;32.80;12.50;;;;;;;4.45;95.30;102604.81;4976723;28;20039;-76
2021/11/06 02:46:16;;;;;;;27.17;12.45;;;;;;;4.43;95.22;102615.13;4978356;28;20029;-76
2021/11/06 02:48:42;;;;;;;31.52;13.50;;;;;;;4.39;95.23;102594.78;4976885;28;20045;-76
2021/11/06 02:51:08;;;;;;;32.20;11.77;;;;;;;4.47;95.38;102596.09;4978245;28;20121;-76
2021/11/06 02:53:33;;;;;;;25.85;12.50;;;;;;;4.46;94.46;102604.72;4980844;28;20049;-76
2021/11/06 02:55:59;;;;;;;29.55;12.88;;;;;;;4.49;95.06;102601.19;4983822;28;20031;-76
2021/11/06 02:58:24;;;;;;;29.05;11.90;;;;;;;4.42;95.08;102607.50;4977943;28;20033;-76
2021/11/06 03:00:52;;;;;;;29.20;13.10;;;;;;;4.37;95.31;102600.03;4992446;28;20023;-76
2021/11/06 03:03:19;;;;;;;25.60;12.25;;;;;;;4.36;95.44;102608.63;4976251;28;20065;-77
2021/11/06 03:05:44;;;;;;;29.27;13.57;;;;;;;4.40;95.03;102601.59;4960187;28;20038;-76
2021/11/06 03:08:10;;;;;;;28.40;13.18;;;;;;;4.33;94.84;102606.19;4979784;28;20550;-76
2021/11/06 03:10:35;;;;;;;34.55;13.30;;;;;;;4.27;95.42;102601.34;4979050;28;20054;-75
2021/11/06 03:13:01;;;;;;;30.15;14.68;;;;;;;4.32;95.28;102599.41;4984384;28;20031;-76
2021/11/06 03:15:27;;;;;;;29.55;12.88;;;;;;;4.33;95.20;102606.19;4981320;28;20374;-76
2021/11/06 03:17:52;;;;;;;36.75;14.20;;;;;;;4.31;95.26;102602.84;4978698;28;20037;-75
2021/11/06 03:20:19;;;;;;;31.02;12.63;;;;;;;4.28;95.48;102601.28;4975650;28;20238;-75
2021/11/06 03:22:45;;;;;;;31.55;12.93;;;;;;;4.25;95.14;102606.53;4980604;28;20042;-75
2021/11/06 03:25:12;;;;;;;29.42;13.65;;;;;;;4.23;95.59;102612.66;4983907;28;20038;-76
2021/11/06 03:27:37;;;;;;;30.45;13.45;;;;;;;4.21;95.70;102609.34;4975898;28;20421;-77
2021/11/06 03:30:08;;;;;;;26.80;12.55;;;;;;;4.20;95.59;102608.50;4982697;28;20039;-76
2021/11/06 03:32:35;;;;;;;26.20;13.23;;;;;;;4.19;95.38;102606.81;4978727;28;20034;-76
2021/11/06 03:35:00;;;;;;;30.80;13.23;;;;;;;4.14;95.73;102607.94;4967551;28;20035;-76
2021/11/06 03:37:26;;;;;;;27.35;12.57;;;;;;;4.14;95.16;102610.50;4981389;28;20031;-75
2021/11/06 03:39:52;;;;;;;24.17;11.98;;;;;;;4.14;95.14;102602.81;4978980;28;20398;-75
2021/11/06 03:42:17;;;;;;;26.13;11.88;;;;;;;4.14;95.07;102613.91;4984967;28;20471;-76
2021/11/06 03:44:43;;;;;;;26.58;11.57;;;;;;;4.13;94.70;102614.81;4962212;28;20062;-76
2021/11/06 03:47:08;;;;;;;26.13;11.20;;;;;;;4.15;95.03;102609.63;4986678;28;20030;-77
2021/11/06 03:49:34;;;;;;;23.85;10.85;;;;;;;4.21;93.63;102606.75;4983335;28;20034;-74
2021/11/06 03:52:00;;;;;;;22.65;10.68;;;;;;;4.17;93.85;102606.06;4967999;28;20038;-76
2021/11/06 03:54:25;;;;;;;26.15;10.60;;;;;;;4.33;93.67;102610.50;4978518;28;20042;-75
2021/11/06 03:56:51;;;;;;;24.55;10.05;;;;;;;4.17;93.45;102612.94;4983504;28;20495;-77
2021/11/06 03:59:16;;;;;;;21.73;10.80;;;;;;;4.10;93.87;102617.50;4961622;28;20616;-76
2021/11/06 04:01:42;;;;;;;20.27;9.65;;;;;;;4.16;94.29;102609.53;4981820;28;20037;-77
2021/11/06 04:04:08;;;;;;;20.30;9.38;;;;;;;4.12;94.28;102614.88;4983619;28;20038;-77
2021/11/06 04:06:34;;;;;;;24.25;9.75;;;;;;;4.16;94.09;102618.97;4987397;28;20073;-75
2021/11/06 04:09:00;;;;;;;21.58;9.77;;;;;;;4.12;93.97;102614.88;4975204;28;20066;-77
2021/11/06 04:11:26;;;;;;;20.92;10.18;;;;;;;4.04;94.12;102608.34;4968919;28;20034;-76
2021/11/06 04:13:51;;;;;;;22.42;9.02;;;;;;;4.08;94.85;102614.19;4985731;28;20111;-76
2021/11/06 04:16:17;;;;;;;18.77;8.95;;;;;;;4.06;94.87;102610.84;4974477;28;20111;-77
2021/11/06 04:18:42;;;;;;;19.48;9.05;;;;;;;4.10;94.70;102610.63;4983572;28;20034;-75
2021/11/06 04:21:08;;;;;;;21.15;9.25;;;;;;;4.07;94.42;102618.50;4981524;28;20061;-75
2021/11/06 04:23:35;;;;;;;22.02;9.05;;;;;;;4.08;94.46;102611.63;4987147;28;20117;-76
2021/11/06 04:26:00;;;;;;;25.30;9.63;;;;;;;4.09;94.25;102606.41;4980208;28;20388;-76
2021/11/06 04:28:26;;;;;;;26.20;9.50;;;;;;;4.09;93.94;102608.16;4980348;28;20031;-77
2021/11/06 04:30:51;;;;;;;22.30;8.73;;;;;;;4.05;94.25;102612.59;4977286;28;20061;-76
2021/11/06 04:33:17;;;;;;;17.55;9.00;;;;;;;4.07;94.26;102607.41;4971902;28;20104;-76
2021/11/06 04:35:43;;;;;;;17.45;8.77;;;;;;;4.00;94.33;102604.25;4980496;28;20022;-75
2021/11/06 04:38:08;;;;;;;20.38;8.95;;;;;;;4.11;94.08;102601.22;4985047;28;20075;-77
2021/11/06 04:40:34;;;;;;;20.50;8.40;;;;;;;4.04;94.14;102602.41;4979909;28;20568;-74
2021/11/06 04:43:00;;;;;;;16.63;9.43;;;;;;;4.02;94.01;102609.34;4981426;28;20064;-76
2021/11/06 04:45:25;;;;;;;17.83;9.90;;;;;;;3.97;94.31;102601.81;4980878;28;20034;-76
2021/11/06 04:47:51;;;;;;;22.30;9.30;;;;;;;4.09;94.08;102605.59;4983408;28;20030;-76
2021/11/06 04:50:17;;;;;;;20.30;8.93;;;;;;;4.04;93.87;102599.81;4981874;28;20042;-77
2021/11/06 04:52:43;;;;;;;24.05;10.00;;;;;;;4.01;94.36;102605.09;4983994;28;20054;-76
2021/11/06 04:55:13;;;;;;;17.77;9.25;;;;;;;3.98;94.33;102597.53;4983922;28;20045;-76
2021/11/06 04:57:38;;;;;;;26.55;9.52;;;;;;;4.02;94.04;102602.47;5004362;28;20616;-76
2021/11/06 05:00:07;;;;;;;24.42;10.60;;;;;;;3.97;94.03;102599.25;4984123;28;20038;-75
2021/11/06 05:02:33;;;;;;;24.10;9.80;;;;;;;3.96;94.15;102600.19;4985135;28;20091;-76
2021/11/06 05:04:58;;;;;;;24.08;9.88;;;;;;;3.92;94.31;102598.66;4959258;28;20406;-76
2021/11/06 05:07:24;;;;;;;18.77;8.60;;;;;;;3.89;93.90;102602.16;4980977;28;20049;-75
2021/11/06 05:09:51;;;;;;;24.58;9.80;;;;;;;4.00;94.33;102603.44;4983192;28;20049;-76
2021/11/06 05:12:19;;;;;;;29.05;9.82;;;;;;;4.12;93.72;102594.34;4977754;28;20379;-76
2021/11/06 05:14:46;;;;;;;24.08;9.50;;;;;;;4.07;93.56;102597.94;4981890;28;20038;-76
2021/11/06 05:17:11;;;;;;;27.75;10.25;;;;;;;4.09;93.51;102608.16;4967693;28;20022;-77
2021/11/06 05:19:37;;;;;;;21.75;11.48;;;;;;;4.07;93.50;102609.97;4980926;28;20513;-75
2021/11/06 05:22:03;;;;;;;25.00;11.45;;;;;;;4.01;93.67;102597.38;4976653;28;20039;-75
2021/11/06 05:24:28;;;;;;;27.63;12.77;;;;;;;4.02;93.88;102599.06;4984080;28;20035;-75
2021/11/06 05:26:54;;;;;;;31.63;12.10;;;;;;;3.98;94.11;102598.38;4985121;28;20251;-76
2021/11/06 05:29:20;;;;;;;25.83;11.00;;;;;;;3.96;94.37;102591.66;4983545;28;20041;-76
2021/11/06 05:31:45;;;;;;;31.52;11.55;;;;;;;3.93;94.79;102604.59;4971380;28;20046;-77
2021/11/06 05:34:11;;;;;;;29.83;11.95;;;;;;;3.90;94.61;102595.31;4961490;28;20487;-77
2021/11/06 05:36:36;;;;;;;26.58;11.80;;;;;;;3.89;94.95;102588.50;4973942;28;20042;-77
2021/11/06 05:39:04;;;;;;;28.50;12.88;;;;;;;3.93;94.54;102599.47;4965578;28;20030;-76
2021/11/06 05:41:29;;;;;;;31.13;11.63;;;;;;;3.90;94.82;102600.47;4968244;28;20431;-75
2021/11/06 05:43:55;;;;;;;30.45;13.20;;;;;;;3.88;94.61;102597.09;4978939;28;20045;-75
2021/11/06 05:46:20;;;;;;;30.85;12.35;;;;;;;3.93;94.58;102600.31;4961741;28;20120;-76
2021/11/06 05:48:46;;;;;;;39.00;13.13;;;;;;;3.94;94.16;102601.13;4971262;28;20043;-76
2021/11/06 05:51:11;;;;;;;28.88;13.40;;;;;;;3.92;94.10;102590.94;4972955;28;20042;-75
2021/11/06 05:53:37;;;;;;;34.17;12.02;;;;;;;4.00;94.09;102590.59;4976605;28;20038;-76
2021/11/06 05:56:21;;;;;;;34.10;13.15;;;;;;;4.00;94.07;102594.00;4984239;28;20068;-76
2021/11/06 05:58:47;;;;;;;23.33;12.27;;;;;;;3.94;93.76;102598.56;4972845;28;20035;-76
2021/11/06 06:01:12;;;;;;;25.13;12.27;;;;;;;3.94;94.12;102601.13;4978924;28;20037;-76
2021/11/06 06:03:37;;;;;;;29.88;12.57;;;;;;;3.87;94.14;102598.00;4968303;28;20069;-76
2021/11/06 06:06:04;;;;;;;38.33;13.10;;;;;;;3.90;93.76;102590.19;4959578;28;20043;-75
2021/11/06 06:08:29;;;;;;;27.85;11.48;;;;;;;3.88;94.39;102604.81;4979946;28;20048;-77
2021/11/06 06:10:55;;;;;;;28.75;12.38;;;;;;;4.00;93.64;102604.25;4958004;28;20043;-75
2021/11/06 06:13:20;;;;;;;22.95;10.55;;;;;;;4.03;92.85;102606.72;4980350;28;20414;-76
2021/11/06 06:15:46;;;;;;;25.08;11.25;;;;;;;3.96;93.30;102612.19;4969072;28;20043;-76
2021/11/06 06:18:12;;;;;;;26.92;11.57;;;;;;;3.86;93.48;102620.28;4985493;28;20022;-77
2021/11/06 06:20:38;;;;;;;26.10;11.07;;;;;;;3.82;93.49;102615.34;4975527;28;20484;-76
2021/11/06 06:23:04;;;;;;;28.13;11.70;;;;;;;3.82;93.75;102620.47;4980985;28;20483;-77
2021/11/06 06:25:30;;;;;;;30.50;11.55;;;;;;;3.84;93.71;102626.38;4982728;28;20175;-76
2021/11/06 06:27:56;;;;;;;31.38;12.48;;;;;;;3.84;94.01;102632.38;4974468;28;20383;-77
2021/11/06 06:30:21;;;;;;;29.10;12.02;;;;;;;3.83;93.75;102625.56;4983965;28;20041;-76
2021/11/06 06:32:47;;;;;;;28.25;12.40;;;;;;;3.86;93.99;102622.00;4983170;28;20026;-74
2021/11/06 06:35:15;;;;;;;23.77;11.18;;;;;;;3.89;93.88;102627.84;4976179;28;20046;-74
2021/11/06 06:37:40;;;;;;;24.95;11.00;;;;;;;3.87;93.68;102637.34;4977667;28;20037;-76
2021/11/06 06:40:09;;;;;;;29.08;11.30;;;;;;;3.90;93.36;102631.25;4981629;28;20406;-76
2021/11/06 06:42:35;;;;;;;25.10;11.00;;;;;;;3.87;93.90;102626.25;5017323;28;20045;-77
2021/11/06 06:45:01;;;;;;;23.65;10.30;;;;;;;3.86;93.95;102624.56;4981032;28;20039;-76
2021/11/06 06:47:26;;;;;;;21.92;10.63;;;;;;;3.85;94.33;102613.47;4963785;28;20535;-76
2021/11/06 06:49:52;;;;;;;23.70;10.60;;;;;;;3.94;93.89;102604.53;4981244;28;20046;-77
2021/11/06 06:52:18;;;;;;;24.20;10.80;;;;;;;3.95;93.71;102602.81;4999599;28;20097;-75
2021/11/06 06:54:44;;;;;;;28.90;11.30;;;;;;;3.96;93.59;102594.22;4975968;28;20049;-77
2021/11/06 06:57:09;;;;;;;24.17;10.57;;;;;;;4.14;92.50;102601.06;4981646;28;20288;-76
2021/11/06 06:59:36;;;;;;;23.83;10.25;;;;;;;4.12;92.61;102602.88;4962925;28;20038;-76
2021/11/06 07:02:06;;;;;;;25.15;10.80;;;;;;;4.09;92.70;102596.16;4966501;28;20031;-77
2021/11/06 07:04:31;;;;;;;23.83;9.70;;;;;;;4.17;92.61;102600.94;4973411;28;20038;-76
2021/11/06 07:06:57;;;;;;;27.60;10.55;;;;;;;4.32;92.04;102607.09;4961104;28;20019;-77
2021/11/06 07:09:24;;;;;;;19.65;10.05;;;;;;;4.31;91.90;102613.13;4963438;28;20042;-76
2021/11/06 07:11:50;;;;;;;23.63;10.45;;;;;;;4.26;92.54;102617.66;4962836;28;20452;-76
2021/11/06 07:14:16;;;;;;;24.80;11.27;;;;;;;4.22;92.67;102616.97;4975614;28;20030;-77
2021/11/06 07:16:43;;;;;;;19.73;9.63;;;;;;;4.33;92.61;102625.91;4969696;28;20025;-77
2021/11/06 07:19:09;;;;;;;22.23;10.00;;;;;;;4.36;92.66;102626.59;4980909;28;20038;-76
2021/11/06 07:21:34;;;;;;;20.25;9.95;;;;;;;4.48;91.48;102631.19;4953905;28;20180;-76
2021/11/06 07:24:00;;;;;;;26.50;9.20;;;;;;;4.46;91.50;102635.56;5059158;23;20535;-75
2021/11/06 07:26:25;;;;;;;24.60;10.23;;;;;;;4.48;91.98;102641.47;5063918;28;20039;-76
2021/11/06 07:28:51;;;;;;;24.23;10.02;;;;;;;4.52;92.14;102639.59;5065167;28;20047;-75
2021/11/06 07:31:16;;;;;;;23.88;9.77;;;;;;;4.62;91.31;102643.38;5062239;28;20111;-76
2021/11/06 07:33:42;;;;;;;21.95;9.43;;;;;;;4.63;91.05;102642.47;5060298;28;20117;-76
2021/11/06 07:36:09;;;;;;;20.70;10.13;;;;;;;4.67;90.90;102638.00;5065418;28;20036;-75
2021/11/06 07:38:35;;;;;;;21.60;9.80;;;;;;;4.67;91.11;102638.00;5068628;28;20578;-76
2021/11/06 07:41:00;;;;;;;25.60;9.73;;;;;;;4.64;91.37;102645.88;5064968;28;20059;-75
2021/11/06 07:43:26;;;;;;;23.90;9.85;;;;;;;4.67;91.27;102641.44;5066651;28;20562;-75
2021/11/06 07:45:51;;;;;;;20.98;9.30;;;;;;;4.78;91.06;102647.78;5064986;28;20420;-75
2021/11/06 07:48:17;;;;;;;19.50;9.75;;;;;;;4.79;90.61;102655.44;5046162;28;20393;-75
2021/11/06 07:50:42;;;;;;;19.75;8.43;;;;;;;4.91;90.19;102645.47;5047589;28;20044;-76
2021/11/06 07:53:08;;;;;;;20.98;9.65;;;;;;;4.80;91.07;102645.97;5050752;28;20100;-75
2021/11/06 07:55:34;;;;;;;23.40;9.35;;;;;;;4.86;90.29;102637.97;5047824;28;20045;-75
2021/11/06 07:57:59;;;;;;;27.17;9.85;;;;;;;4.98;90.12;102631.41;5067175;28;20233;-78
2021/11/06 08:00:25;;;;;;;21.17;10.15;;;;;;;5.00;89.85;102630.41;5070815;28;20033;-76
2021/11/06 08:02:51;;;;;;;22.45;8.38;;;;;;;5.03;89.52;102626.88;5049451;28;20037;-75
2021/11/06 08:05:17;;;;;;;23.30;9.02;;;;;;;5.17;89.53;102619.28;5067205;28;20021;-74
2021/11/06 08:07:44;;;;;;;99.35;35.17;;;;;;;5.29;88.93;102624.75;5069012;28;20028;-75
2021/11/06 08:10:10;;;;;;;84.07;25.05;;;;;;;5.36;88.84;102616.63;5067075;28;20097;-76
2021/11/06 08:12:40;;;;;;;89.50;27.77;;;;;;;5.57;87.75;102614.69;5065369;28;20029;-76
2021/11/06 08:15:08;;;;;;;45.80;17.70;;;;;;;5.81;86.77;102611.78;5053359;28;20052;-76
2021/11/06 08:17:33;;;;;;;41.80;17.08;;;;;;;6.05;86.37;102619.97;5067979;28;20036;-76
2021/11/06 08:19:59;;;;;;;31.92;13.18;;;;;;;6.27;84.57;102618.81;5060717;28;20063;-75
2021/11/06 08:22:25;;;;;;;27.20;11.43;;;;;;;6.55;82.99;102612.97;5055379;28;20034;-75
2021/11/06 08:24:51;;;;;;;27.20;12.05;;;;;;;6.69;81.89;102605.31;4988524;28;20102;-75
2021/11/06 08:27:17;;;;;;;60.58;22.63;;;;;;;6.90;81.49;102603.25;4987015;28;20139;-76
2021/11/06 08:29:44;;;;;;;20.45;9.48;;;;;;;6.91;81.06;102604.06;4990555;28;20122;-76
2021/11/06 08:32:10;;;;;;;29.30;14.00;;;;;;;6.93;80.61;102613.41;5059063;28;20038;-76
2021/11/06 08:34:35;;;;;;;19.38;9.35;;;;;;;7.01;80.74;102603.47;4991082;28;20042;-75
2021/11/06 08:37:01;;;;;;;23.58;10.23;;;;;;;7.44;79.10;102600.13;4989254;28;20529;-76
2021/11/06 08:39:27;;;;;;;27.67;11.35;;;;;;;7.58;77.99;102597.53;4990406;28;20034;-76
2021/11/06 08:41:55;;;;;;;17.80;8.93;;;;;;;7.65;77.33;102602.31;4976154;28;20022;-75
2021/11/06 08:44:22;;;;;;;12.70;6.05;;;;;;;7.46;78.47;102600.88;4999434;28;20074;-75
2021/11/06 08:46:50;;;;;;;14.05;7.63;;;;;;;7.40;79.35;102601.22;4973473;28;20071;-75
2021/11/06 08:49:17;;;;;;;14.10;7.90;;;;;;;7.46;78.85;102605.19;4965678;28;20030;-75
2021/11/06 08:51:48;;;;;;;18.85;7.85;;;;;;;7.42;79.04;102601.94;4985225;28;20034;-76
2021/11/06 08:54:15;;;;;;;12.15;7.28;;;;;;;7.39;79.54;102597.81;4987708;28;20030;-76
2021/11/06 08:56:42;;;;;;;13.45;5.30;;;;;;;7.34;79.74;102602.41;5057790;28;20053;-75
2021/11/06 08:59:07;;;;;;;11.13;5.22;;;;;;;7.34;79.41;102596.41;4993784;28;20042;-77
2021/11/06 09:01:35;;;;;;;12.15;5.82;;;;;;;7.20;80.25;102604.97;4977570;28;20413;-78
2021/11/06 09:04:00;;;;;;;11.35;5.82;;;;;;;7.20;81.03;102612.72;4984358;28;20554;-77
2021/11/06 09:06:26;;;;;;;14.32;5.40;;;;;;;7.28;80.45;102607.09;4991414;28;20023;-75
2021/11/06 09:08:51;;;;;;;16.23;5.70;;;;;;;7.07;81.26;102606.63;5017621;28;20537;-77
2021/11/06 09:11:18;;;;;;;10.10;5.95;;;;;;;7.12;81.41;102618.34;4969265;28;20728;-76
2021/11/06 09:13:49;;;;;;;12.32;5.68;;;;;;;7.09;81.51;102609.94;5019996;28;20038;-75
2021/11/06 09:16:15;;;;;;;14.48;5.70;;;;;;;7.18;81.62;102612.81;5052000;28;20107;-76
2021/11/06 09:18:41;;;;;;;17.35;6.13;;;;;;;7.16;82.10;102619.81;5022749;28;20117;-74
2021/11/06 09:21:09;;;;;;;13.85;5.75;;;;;;;7.25;81.54;102610.69;5061961;28;20038;-75
2021/11/06 09:23:35;;;;;;;10.40;5.20;;;;;;;7.19;82.16;102618.78;5010019;28;20089;-76
2021/11/06 09:26:01;;;;;;;12.77;5.35;;;;;;;7.21;81.76;102620.38;4992059;28;20250;-74
2021/11/06 09:28:27;;;;;;;12.50;5.63;;;;;;;7.40;81.33;102612.38;4996716;28;20036;-76
2021/11/06 09:30:54;;;;;;;13.70;4.65;;;;;;;7.40;81.07;102606.38;4990232;28;20099;-75
2021/11/06 09:33:19;;;;;;;12.55;5.20;;;;;;;7.39;81.79;102615.06;4990336;28;20529;-75
2021/11/06 09:35:45;;;;;;;12.55;6.32;;;;;;;7.52;81.02;102610.81;4977873;28;20042;-75
2021/11/06 09:38:11;;;;;;;8.65;5.30;;;;;;;7.45;81.92;102599.19;4991436;28;20042;-75
2021/11/06 09:40:37;;;;;;;12.60;5.00;;;;;;;7.57;80.73;102605.34;4984771;28;20089;-76
2021/11/06 09:43:02;;;;;;;13.00;4.80;;;;;;;7.71;81.20;102604.56;4990562;28;20095;-77
2021/11/06 09:45:28;;;;;;;16.42;5.53;;;;;;;7.58;81.68;102605.28;4983666;28;20485;-77
2021/11/06 09:47:53;;;;;;;11.07;4.80;;;;;;;7.64;81.51;102608.41;4983587;28;20038;-75
2021/11/06 09:50:21;;;;;;;11.57;4.95;;;;;;;7.70;81.54;102614.03;4995620;28;20031;-76
2021/11/06 09:52:47;;;;;;;9.40;4.80;;;;;;;7.78;80.84;102611.81;4987205;28;20042;-76
2021/11/06 09:55:18;;;;;;;13.45;5.88;;;;;;;7.86;81.19;102607.94;4984384;28;20045;-76
2021/11/06 09:57:45;;;;;;;14.27;5.20;;;;;;;7.88;81.32;102609.50;4986342;28;20042;-76
2021/11/06 10:00:13;;;;;;;11.25;5.32;;;;;;;8.03;79.74;102609.50;4971558;28;20105;-77
2021/11/06 10:02:41;;;;;;;18.52;6.55;;;;;;;7.91;80.73;102609.31;4987016;28;20486;-77
2021/11/06 10:05:08;;;;;;;11.88;4.35;;;;;;;7.95;80.95;102603.03;4988187;28;20049;-76
2021/11/06 10:07:36;;;;;;;11.45;6.68;;;;;;;8.14;81.02;102602.72;4985099;28;20054;-77
2021/11/06 10:10:11;;;;;;;15.45;5.35;;;;;;;8.41;80.28;102601.91;4967574;28;20034;-76
2021/11/06 10:12:45;;;;;;;8.85;4.30;;;;;;;8.55;80.07;102591.53;4985723;28;20053;-76
2021/11/06 10:15:11;;;;;;;10.82;4.80;;;;;;;8.74;79.84;102591.19;4981680;28;20034;-77
2021/11/06 10:17:37;;;;;;;11.43;4.88;;;;;;;8.82;79.05;102590.69;4987364;28;20129;-76
2021/11/06 10:20:28;;;;;;;10.93;4.50;;;;;;;8.82;78.42;102588.09;4986577;28;20406;-77
2021/11/06 10:22:56;;;;;;;9.35;4.70;;;;;;;8.79;78.54;102590.03;4995403;28;20024;-77
2021/11/06 10:25:23;;;;;;;13.73;4.47;;;;;;;8.74;77.84;102582.59;5063503;28;20061;-77
2021/11/06 10:27:59;;;;;;;11.20;4.97;;;;;;;8.76;78.82;102584.16;4987346;28;20268;-77
2021/11/06 10:30:34;;;;;;;10.48;4.45;;;;;;;8.88;78.62;102576.50;4986626;28;20073;-75
2021/11/06 10:33:03;;;;;;;9.13;4.70;;;;;;;8.89;78.73;102578.16;4978623;28;20372;-76
2021/11/06 10:35:34;;;;;;;7.90;4.20;;;;;;;8.94;78.20;102576.91;4991742;28;20037;-76
2021/11/06 10:38:25;;;;;;;12.50;5.05;;;;;;;9.06;77.33;102575.28;4987860;28;20033;-76
2021/11/06 10:40:59;;;;;;;9.43;4.18;;;;;;;9.08;77.90;102576.00;4996357;28;20290;-77
2021/11/06 10:43:27;;;;;;;10.15;4.43;;;;;;;9.18;77.50;102575.41;4988586;28;20036;-76
2021/11/06 10:45:59;;;;;;;9.00;4.03;;;;;;;9.28;76.89;102566.88;4986722;28;20042;-78
2021/11/06 10:48:30;;;;;;;5.60;3.83;;;;;;;9.23;76.13;102568.97;4981579;28;20053;-77
2021/11/06 10:51:13;;;;;;;12.48;4.35;;;;;;;9.44;77.08;102569.28;4985792;28;20038;-76
2021/11/06 10:53:42;;;;;;;8.75;3.67;;;;;;;9.41;75.73;102553.13;5001533;28;20429;-76
2021/11/06 10:56:13;;;;;;;6.97;3.65;;;;;;;9.49;76.06;102561.16;4986125;28;20462;-75
2021/11/06 10:58:40;;;;;;;8.50;3.67;;;;;;;9.43;77.22;102556.41;4986460;28;20079;-78
2021/11/06 11:01:09;;;;;;;11.93;3.72;;;;;;;9.57;75.60;102540.75;4970176;28;20046;-76
2021/11/06 11:03:44;;;;;;;7.20;3.13;;;;;;;9.66;75.72;102547.91;5002956;28;20046;-78
2021/11/06 11:06:27;;;;;;;5.10;3.15;;;;;;;9.88;74.87;102539.41;4972696;28;20121;-77
2021/11/06 11:08:55;;;;;;;5.82;3.47;;;;;;;9.99;74.54;102537.84;4991664;28;20502;-77
2021/11/06 11:11:24;;;;;;;8.65;3.50;;;;;;;9.89;74.92;102529.91;4967277;28;20482;-78
2021/11/06 11:14:00;;;;;;;6.82;3.33;;;;;;;9.98;74.84;102531.81;4975278;28;20072;-75
2021/11/06 11:16:26;;;;;;;7.18;3.28;;;;;;;10.02;73.81;102520.31;4986598;28;20078;-77
2021/11/06 11:18:54;;;;;;;5.65;3.08;;;;;;;10.03;73.76;102524.53;4985865;28;20035;-76